Time;durP1;ratioP1;P1;durP2;ratioP2;P2;SDS_P1;SDS_P2;PMS_P1;PMS_P2;Temp;Humidity;BMP_temperature;BMP_pressure;BME280_temperature;BME280_humidity;BME280_pressure;Samples;Min_cycle;Max_cycle;Signal;HPM_P1;HPM_P2
2023/01/14 00:00:20;;;;;;;26.83;4.60;;;;;;;5.85;100.00;100438.44;5016670;28;20222;-47
2023/01/14 00:02:46;;;;;;;31.17;4.18;;;;;;;5.75;100.00;100435.13;5010518;28;20192;-50
2023/01/14 00:05:11;;;;;;;23.65;4.13;;;;;;;5.94;100.00;100437.31;5020795;28;20214;-46
2023/01/14 00:07:37;;;;;;;24.52;3.88;;;;;;;5.95;100.00;100434.66;5013334;28;20262;-47
2023/01/14 00:10:03;;;;;;;26.05;4.03;;;;;;;5.97;100.00;100439.94;5018763;28;20207;-46
2023/01/14 00:12:29;;;;;;;31.50;4.32;;;;;;;6.05;100.00;100447.72;5017760;28;20669;-44
2023/01/14 00:14:55;;;;;;;23.75;4.55;;;;;;;6.07;100.00;100440.56;5016714;28;20192;-45
2023/01/14 00:17:20;;;;;;;22.13;4.20;;;;;;;6.01;100.00;100438.94;5024675;28;20189;-46
2023/01/14 00:19:46;;;;;;;23.92;3.10;;;;;;;6.02;100.00;100450.47;5016556;28;20165;-48
2023/01/14 00:22:11;;;;;;;26.75;4.45;;;;;;;6.03;100.00;100450.41;5016765;28;20184;-46
2023/01/14 00:24:37;;;;;;;19.83;3.70;;;;;;;6.05;100.00;100461.88;5025700;28;20203;-47
2023/01/14 00:27:02;;;;;;;20.83;3.55;;;;;;;6.09;100.00;100460.03;5025619;28;20188;-48
2023/01/14 00:29:30;;;;;;;27.27;4.10;;;;;;;6.03;100.00;100461.03;5025771;28;20208;-46
2023/01/14 00:31:57;;;;;;;26.55;4.22;;;;;;;6.11;100.00;100468.84;5019300;28;20530;-46
2023/01/14 00:34:25;;;;;;;21.67;4.65;;;;;;;6.12;100.00;100481.22;5029523;28;20172;-48
2023/01/14 00:36:51;;;;;;;26.33;3.65;;;;;;;6.07;100.00;100472.50;5024632;28;20193;-47
2023/01/14 00:39:20;;;;;;;16.08;3.10;;;;;;;6.14;100.00;100463.44;5028655;28;20184;-47
2023/01/14 00:41:46;;;;;;;22.05;3.35;;;;;;;5.96;100.00;100465.66;5018745;28;20186;-49
2023/01/14 00:44:11;;;;;;;16.55;2.70;;;;;;;5.81;100.00;100470.44;5024848;28;20243;-46
2023/01/14 00:46:39;;;;;;;13.38;2.00;;;;;;;5.78;100.00;100472.25;5014079;28;20251;-48
2023/01/14 00:49:06;;;;;;;11.25;2.85;;;;;;;5.73;100.00;100473.31;5015364;28;20680;-46
2023/01/14 00:51:32;;;;;;;19.40;3.63;;;;;;;5.85;100.00;100490.72;5018163;28;20683;-47
2023/01/14 00:53:59;;;;;;;21.85;2.92;;;;;;;5.87;100.00;100486.25;5021795;28;20215;-48
2023/01/14 00:56:25;;;;;;;20.90;3.85;;;;;;;5.81;100.00;100486.41;5023417;28;20206;-46
2023/01/14 00:58:51;;;;;;;26.90;3.80;;;;;;;5.82;100.00;100494.34;5019564;28;20187;-46
2023/01/14 01:01:18;;;;;;;22.38;3.33;;;;;;;5.81;100.00;100500.56;5017398;28;20219;-48
2023/01/14 01:03:49;;;;;;;26.92;4.13;;;;;;;5.78;100.00;100498.84;5024181;28;20189;-46
2023/01/14 01:06:18;;;;;;;23.95;3.58;;;;;;;5.82;100.00;100518.28;5015803;28;20691;-47
2023/01/14 01:08:44;;;;;;;23.23;3.55;;;;;;;5.92;100.00;100524.22;5017902;28;20409;-47
2023/01/14 01:11:13;;;;;;;17.55;2.92;;;;;;;5.81;100.00;100523.63;5026741;28;20670;-45
2023/01/14 01:13:39;;;;;;;21.30;3.45;;;;;;;5.82;100.00;100530.69;5021123;28;20176;-46
2023/01/14 01:16:10;;;;;;;19.55;3.20;;;;;;;5.86;100.00;100532.34;5019374;28;20195;-48
2023/01/14 01:18:36;;;;;;;21.58;3.70;;;;;;;5.91;100.00;100536.66;5001380;28;20203;-49
2023/01/14 01:21:08;;;;;;;20.70;4.13;;;;;;;5.89;100.00;100542.94;5024962;28;20228;-47
2023/01/14 01:23:40;;;;;;;16.77;3.58;;;;;;;5.81;100.00;100545.75;5027089;28;20230;-48
2023/01/14 01:26:07;;;;;;;17.55;3.20;;;;;;;5.90;100.00;100544.66;5021163;28;20274;-48
2023/01/14 01:28:33;;;;;;;26.42;4.22;;;;;;;5.85;100.00;100541.25;5018318;28;20207;-48
2023/01/14 01:31:17;;;;;;;18.30;3.60;;;;;;;5.88;100.00;100549.13;5027599;28;20547;-46
2023/01/14 01:33:43;;;;;;;19.17;3.38;;;;;;;5.94;100.00;100555.22;5011731;28;20212;-47
2023/01/14 01:36:17;;;;;;;19.50;2.92;;;;;;;5.87;100.00;100556.25;5021297;28;20813;-48
2023/01/14 01:38:45;;;;;;;18.65;3.05;;;;;;;5.82;100.00;100552.81;5025863;28;20673;-47
2023/01/14 01:41:18;;;;;;;23.98;4.28;;;;;;;5.74;100.00;100557.44;5020247;28;20276;-48
2023/01/14 01:44:18;;;;;;;18.85;2.83;;;;;;;5.74;100.00;100570.72;5020363;28;20192;-47
2023/01/14 01:46:44;;;;;;;17.33;3.28;;;;;;;5.75;100.00;100572.47;4953008;28;20242;-48
2023/01/14 01:49:14;;;;;;;22.92;3.60;;;;;;;5.81;100.00;100579.44;5013842;28;20219;-49
2023/01/14 01:51:52;;;;;;;29.73;3.63;;;;;;;5.82;100.00;100578.56;5018077;28;20237;-47
2023/01/14 01:54:23;;;;;;;22.23;3.47;;;;;;;5.83;100.00;100580.28;5019278;28;20207;-48
2023/01/14 01:56:49;;;;;;;23.90;3.25;;;;;;;5.81;100.00;100582.09;5019496;28;20218;-46
2023/01/14 01:59:21;;;;;;;18.23;3.28;;;;;;;5.75;100.00;100588.41;5028038;28;20736;-47
2023/01/14 02:01:47;;;;;;;25.20;3.80;;;;;;;5.74;100.00;100597.31;5014230;28;20184;-47
2023/01/14 02:04:13;;;;;;;24.02;3.10;;;;;;;5.79;100.00;100600.72;5022201;28;20251;-45
2023/01/14 02:06:39;;;;;;;23.45;3.95;;;;;;;5.78;100.00;100605.19;5022664;28;20761;-43
2023/01/14 02:09:05;;;;;;;20.80;2.85;;;;;;;5.82;100.00;100605.13;5025816;28;20235;-44
2023/01/14 02:11:34;;;;;;;17.38;3.15;;;;;;;5.78;100.00;100593.69;5016417;28;20184;-45
2023/01/14 02:14:13;;;;;;;20.08;2.92;;;;;;;5.76;100.00;100606.13;5018436;28;20176;-45
2023/01/14 02:16:41;;;;;;;24.05;3.03;;;;;;;5.81;100.00;100608.69;5018711;28;20211;-45
2023/01/14 02:19:16;;;;;;;25.25;2.90;;;;;;;5.74;100.00;100616.78;5026855;28;20177;-46
2023/01/14 02:21:50;;;;;;;26.92;3.35;;;;;;;5.78;100.00;100617.59;5015130;28;20209;-48
2023/01/14 02:24:59;;;;;;;23.30;3.22;;;;;;;5.75;100.00;100621.22;5021869;28;20180;-41
2023/01/14 02:27:34;;;;;;;24.42;4.00;;;;;;;5.83;100.00;100626.34;5017510;28;20183;-43
2023/01/14 02:30:08;;;;;;;18.40;3.03;;;;;;;5.80;100.00;100623.78;5021830;28;20192;-44
2023/01/14 02:32:47;;;;;;;17.73;2.85;;;;;;;5.83;100.00;100617.50;5026283;28;20654;-46
2023/01/14 02:35:39;;;;;;;20.45;3.15;;;;;;;5.86;100.00;100622.75;5022166;28;20230;-44
2023/01/14 02:38:34;;;;;;;16.88;3.30;;;;;;;5.86;100.00;100634.28;5020417;28;20172;-45
2023/01/14 02:41:17;;;;;;;20.08;3.30;;;;;;;5.84;100.00;100621.91;5016801;28;20180;-44
2023/01/14 02:44:12;;;;;;;22.73;2.95;;;;;;;5.83;100.00;100638.78;5015047;28;20184;-46
2023/01/14 02:46:58;;;;;;;27.10;3.60;;;;;;;5.90;100.00;100637.72;5027927;28;20184;-46
2023/01/14 02:49:27;;;;;;;24.23;2.97;;;;;;;5.89;100.00;100646.63;5018338;28;20214;-47
2023/01/14 02:51:56;;;;;;;22.05;3.70;;;;;;;5.87;100.00;100637.81;5019943;28;20184;-45
2023/01/14 02:54:22;;;;;;;17.58;3.17;;;;;;;5.86;100.00;100625.41;5018569;28;20176;-45
2023/01/14 02:56:49;;;;;;;21.00;3.55;;;;;;;5.92;100.00;100649.19;5034514;28;20193;-45
2023/01/14 02:59:29;;;;;;;18.70;2.75;;;;;;;5.86;100.00;100636.03;5024189;28;20215;-46
2023/01/14 03:02:10;;;;;;;20.52;3.40;;;;;;;5.89;100.00;100647.47;5020943;28;20227;-44
2023/01/14 03:04:43;;;;;;;21.80;3.95;;;;;;;5.86;100.00;100654.63;5023651;28;20234;-46
2023/01/14 03:07:30;;;;;;;19.92;3.40;;;;;;;5.85;100.00;100652.91;5019873;28;20171;-44
2023/01/14 03:10:35;;;;;;;22.73;3.58;;;;;;;5.83;100.00;100660.91;5013620;28;20210;-44
2023/01/14 03:13:21;;;;;;;19.58;3.03;;;;;;;5.78;100.00;100649.50;5017112;28;20191;-45
2023/01/14 03:16:11;;;;;;;19.95;3.03;;;;;;;5.84;100.00;100657.34;5016899;28;20227;-48
2023/01/14 03:19:00;;;;;;;22.70;2.83;;;;;;;5.80;100.00;100666.31;5020922;28;20191;-43
2023/01/14 03:21:35;;;;;;;22.23;3.47;;;;;;;5.74;100.00;100664.63;5016841;28;20206;-44
2023/01/14 03:24:25;;;;;;;16.27;2.85;;;;;;;5.72;100.00;100668.25;5017709;28;20191;-42
2023/01/14 03:26:54;;;;;;;20.52;2.72;;;;;;;5.69;100.00;100658.56;5029663;28;20173;-43
2023/01/14 03:29:28;;;;;;;22.05;3.42;;;;;;;5.75;100.00;100657.53;5031913;28;20203;-48
2023/01/14 03:32:47;;;;;;;16.45;2.38;;;;;;;5.72;100.00;100669.09;5017556;28;20176;-47
2023/01/14 03:35:18;;;;;;;16.38;2.67;;;;;;;5.75;100.00;100663.75;4976384;28;20216;-48
2023/01/14 03:38:07;;;;;;;14.60;2.58;;;;;;;5.78;100.00;100673.44;5017802;28;20637;-44
2023/01/14 03:40:36;;;;;;;13.05;2.83;;;;;;;5.83;100.00;100679.53;5018675;28;20196;-46
2023/01/14 03:43:14;;;;;;;16.85;2.83;;;;;;;5.90;100.00;100683.81;5025407;28;20184;-43
2023/01/14 03:45:42;;;;;;;11.60;2.10;;;;;;;5.86;100.00;100678.56;5030524;28;20248;-43
2023/01/14 03:48:09;;;;;;;17.13;2.75;;;;;;;5.98;100.00;100670.38;5014774;28;20304;-47
2023/01/14 03:51:05;;;;;;;14.00;2.35;;;;;;;5.96;100.00;100658.91;5025461;28;20262;-44
2023/01/14 03:53:52;;;;;;;13.77;2.08;;;;;;;5.88;100.00;100680.31;5017435;28;20192;-44
2023/01/14 03:56:57;;;;;;;19.05;2.17;;;;;;;5.92;100.00;100670.47;5022823;28;20242;-50
2023/01/14 03:59:41;;;;;;;19.08;2.95;;;;;;;5.92;100.00;100681.97;5015538;28;20168;-45
2023/01/14 04:02:09;;;;;;;13.68;2.13;;;;;;;5.96;100.00;100675.72;5015963;28;20541;-43
2023/01/14 04:04:35;;;;;;;16.65;2.13;;;;;;;5.87;100.00;100675.03;5020626;28;20543;-42
2023/01/14 04:07:01;;;;;;;11.80;1.95;;;;;;;5.89;100.00;100679.41;5021691;28;20179;-43
2023/01/14 04:09:27;;;;;;;16.08;2.15;;;;;;;5.85;100.00;100682.16;5017024;28;20201;-45
2023/01/14 04:11:52;;;;;;;11.85;2.28;;;;;;;5.89;100.00;100675.88;5018729;28;20185;-47
2023/01/14 04:17:01;;;;;;;13.05;2.00;;;;;;;5.86;100.00;100666.19;5021088;28;20188;-43
2023/01/14 04:19:27;;;;;;;14.15;2.42;;;;;;;5.84;100.00;100688.34;5016067;28;20176;-45
2023/01/14 04:21:52;;;;;;;14.98;2.60;;;;;;;5.81;100.00;100683.13;5019808;28;20172;-49
2023/01/14 04:24:18;;;;;;;10.48;1.77;;;;;;;5.77;100.00;100687.63;5022768;28;20282;-43
2023/01/14 04:26:43;;;;;;;17.60;2.72;;;;;;;5.73;100.00;100692.16;5020946;28;20168;-44
2023/01/14 04:29:09;;;;;;;18.30;2.55;;;;;;;5.69;100.00;100684.25;5026889;28;20263;-45
2023/01/14 04:31:34;;;;;;;14.82;2.63;;;;;;;5.67;100.00;100683.41;5020924;28;20275;-43
2023/01/14 04:34:00;;;;;;;14.52;2.63;;;;;;;5.67;100.00;100691.41;5031189;28;20610;-45
2023/01/14 04:36:25;;;;;;;15.23;3.03;;;;;;;5.64;100.00;100687.03;5021629;28;20219;-45
2023/01/14 04:38:50;;;;;;;15.18;2.53;;;;;;;5.58;100.00;100705.75;5017147;28;20185;-42
2023/01/14 04:44:00;;;;;;;14.45;2.35;;;;;;;5.55;100.00;100712.00;5020230;28;20620;-42
2023/01/14 04:46:26;;;;;;;17.58;2.20;;;;;;;5.55;100.00;100712.00;5021006;28;20224;-44
2023/01/14 04:48:51;;;;;;;15.30;2.85;;;;;;;5.54;100.00;100712.88;5021578;28;20235;-45
2023/01/14 04:51:17;;;;;;;19.27;2.97;;;;;;;5.61;100.00;100712.78;5020726;28;20291;-44
2023/01/14 04:53:42;;;;;;;14.18;2.33;;;;;;;5.62;100.00;100717.16;5021002;28;20186;-42
2023/01/14 04:56:08;;;;;;;17.13;2.55;;;;;;;5.58;100.00;100719.91;5025619;28;20230;-44
2023/01/14 04:58:34;;;;;;;15.43;2.42;;;;;;;5.54;100.00;100725.31;5024231;28;20196;-47
2023/01/14 05:01:00;;;;;;;16.42;3.28;;;;;;;5.56;100.00;100732.34;5023634;28;20187;-44
2023/01/14 05:03:25;;;;;;;15.38;2.92;;;;;;;5.61;100.00;100723.41;5022133;28;20639;-43
2023/01/14 05:05:51;;;;;;;15.85;2.50;;;;;;;5.62;100.00;100714.50;5022205;28;20485;-45
2023/01/14 05:08:17;;;;;;;15.82;2.80;;;;;;;5.62;100.00;100710.09;5019312;28;20208;-43
2023/01/14 05:10:42;;;;;;;16.58;2.85;;;;;;;5.61;100.00;100715.44;5020236;28;20269;-48
2023/01/14 05:13:08;;;;;;;19.80;2.70;;;;;;;5.55;100.00;100714.66;5023663;28;20211;-46
2023/01/14 05:15:39;;;;;;;17.65;2.78;;;;;;;5.55;100.00;100719.97;5021269;28;20254;-44
2023/01/14 05:18:06;;;;;;;19.55;3.13;;;;;;;5.54;100.00;100710.22;5018927;28;20287;-48
2023/01/14 05:20:32;;;;;;;17.40;3.10;;;;;;;5.48;100.00;100714.78;5022786;28;20250;-42
2023/01/14 05:23:00;;;;;;;14.18;2.45;;;;;;;5.53;100.00;100721.78;5021320;28;20197;-43
2023/01/14 05:25:26;;;;;;;11.20;2.10;;;;;;;5.61;100.00;100710.97;5025250;28;20700;-47
2023/01/14 05:27:51;;;;;;;14.20;2.83;;;;;;;5.53;100.00;100718.22;5017094;28;20189;-46
2023/01/14 05:30:17;;;;;;;20.40;3.63;;;;;;;5.56;100.00;100712.88;5016787;28;20172;-46
2023/01/14 05:32:42;;;;;;;11.35;2.42;;;;;;;5.55;100.00;100713.75;5016090;28;20192;-47
2023/01/14 05:35:08;;;;;;;21.10;2.70;;;;;;;5.57;100.00;100718.16;5019027;28;20216;-46
2023/01/14 05:37:33;;;;;;;21.52;3.70;;;;;;;5.56;100.00;100705.75;5020510;28;20187;-45
2023/01/14 05:40:00;;;;;;;18.33;2.90;;;;;;;5.68;100.00;100706.41;5020365;28;20584;-47
2023/01/14 05:47:55;;;;;;;15.48;2.40;;;;;;;5.63;100.00;100711.81;5026017;28;20827;-47
2023/01/14 05:50:20;;;;;;;13.48;2.20;;;;;;;5.56;100.00;100712.88;5018653;28;20195;-46
2023/01/14 05:52:46;;;;;;;12.05;2.42;;;;;;;5.63;100.00;100713.63;5016474;28;20708;-45
2023/01/14 05:55:12;;;;;;;9.63;1.70;;;;;;;5.64;100.00;100713.59;5030166;28;20282;-46
2023/01/14 05:57:37;;;;;;;13.68;2.67;;;;;;;5.66;100.00;100703.78;5017648;28;20278;-46
2023/01/14 06:00:04;;;;;;;11.02;2.38;;;;;;;5.60;100.00;100698.63;5014640;28;20168;-46
2023/01/14 06:08:05;;;;;;;15.82;2.35;;;;;;;5.51;100.00;100701.44;5019369;28;20215;-46
2023/01/14 06:10:30;;;;;;;12.13;2.08;;;;;;;5.48;100.00;100697.06;5024020;28;20176;-47
2023/01/14 06:12:58;;;;;;;8.52;1.85;;;;;;;5.48;100.00;100697.06;5014450;28;20220;-45
2023/01/14 06:15:25;;;;;;;15.15;2.35;;;;;;;5.44;100.00;100691.84;5015788;28;20326;-46
2023/01/14 06:17:58;;;;;;;10.35;2.25;;;;;;;5.36;100.00;100692.88;5017901;28;20176;-46
2023/01/14 06:20:24;;;;;;;10.35;2.33;;;;;;;5.39;100.00;100691.06;5014192;28;20200;-46
2023/01/14 06:22:55;;;;;;;10.40;2.03;;;;;;;5.39;100.00;100686.63;5018585;28;20183;-46
2023/01/14 06:25:20;;;;;;;9.40;1.65;;;;;;;5.48;100.00;100697.06;5025969;28;20208;-45
2023/01/14 06:27:46;;;;;;;10.43;2.20;;;;;;;5.42;100.00;100706.94;5021279;28;20187;-47
2023/01/14 06:30:12;;;;;;;17.50;2.17;;;;;;;5.46;100.00;100695.34;5018714;28;20209;-45
2023/01/14 06:32:37;;;;;;;11.90;2.33;;;;;;;5.45;100.00;100697.13;5015857;28;20647;-45
2023/01/14 06:35:03;;;;;;;7.70;2.30;;;;;;;5.47;100.00;100692.66;5024957;28;20571;-46
2023/01/14 06:37:28;;;;;;;14.60;2.42;;;;;;;5.46;100.00;100690.03;5017274;28;20757;-46
2023/01/14 06:39:54;;;;;;;14.65;2.70;;;;;;;5.55;100.00;100687.19;5012913;28;20200;-47
2023/01/14 06:42:19;;;;;;;16.25;3.10;;;;;;;5.49;100.00;100692.63;5025778;28;20659;-45
2023/01/14 06:44:46;;;;;;;9.52;2.47;;;;;;;5.51;100.00;100681.06;5019563;28;20630;-47
2023/01/14 06:47:12;;;;;;;12.65;3.05;;;;;;;5.54;100.00;100680.13;5023968;28;20274;-46
2023/01/14 06:49:37;;;;;;;13.05;2.83;;;;;;;5.46;100.00;100679.41;5020279;28;20223;-47
2023/01/14 06:52:03;;;;;;;15.90;3.63;;;;;;;5.44;100.00;100676.75;5025340;28;20184;-47
2023/01/14 06:54:28;;;;;;;16.80;2.97;;;;;;;5.45;100.00;100693.59;5018585;28;20234;-46
2023/01/14 06:56:54;;;;;;;15.00;3.25;;;;;;;5.45;100.00;100696.25;5019109;28;20196;-47
2023/01/14 06:59:19;;;;;;;20.92;3.55;;;;;;;5.48;100.00;100691.75;5022851;28;20176;-46
2023/01/14 07:01:45;;;;;;;14.57;3.60;;;;;;;5.47;100.00;100689.13;5014376;28;20238;-46
2023/01/14 07:04:10;;;;;;;14.40;3.80;;;;;;;5.51;100.00;100690.78;5030037;28;20183;-46
2023/01/14 07:06:36;;;;;;;19.02;4.57;;;;;;;5.50;100.00;100707.66;5015634;28;20196;-46
2023/01/14 07:09:01;;;;;;;18.67;4.10;;;;;;;5.52;100.00;100708.50;5015690;28;20197;-45
2023/01/14 07:11:27;;;;;;;22.70;4.25;;;;;;;5.49;100.00;100708.59;5016720;28;20273;-47
2023/01/14 07:13:52;;;;;;;16.50;4.07;;;;;;;5.52;100.00;100700.53;5017510;28;20176;-47
2023/01/14 07:16:18;;;;;;;18.33;4.53;;;;;;;5.51;100.00;100701.44;5018233;28;20188;-45
2023/01/14 07:18:43;;;;;;;17.33;3.88;;;;;;;5.51;100.00;100693.47;5020846;28;20198;-45
2023/01/14 07:21:09;;;;;;;17.48;3.40;;;;;;;5.52;100.00;100698.75;5021713;28;20206;-46
2023/01/14 07:23:34;;;;;;;19.35;3.90;;;;;;;5.54;100.00;100688.97;5023956;28;20707;-46
2023/01/14 07:26:00;;;;;;;15.32;3.80;;;;;;;5.54;100.00;100686.31;5016588;28;20204;-47
2023/01/14 07:28:27;;;;;;;13.85;3.65;;;;;;;5.52;100.00;100679.28;5027953;28;20291;-47
2023/01/14 07:30:52;;;;;;;17.05;3.47;;;;;;;5.52;100.00;100685.47;5020373;28;20266;-46
2023/01/14 07:33:19;;;;;;;16.92;3.83;;;;;;;5.55;100.00;100676.53;5018266;28;20210;-46
2023/01/14 07:35:47;;;;;;;16.33;3.17;;;;;;;5.59;100.00;100680.91;5022520;28;20666;-46
2023/01/14 07:38:12;;;;;;;18.55;4.57;;;;;;;5.59;100.00;100683.56;5017768;28;20183;-46
2023/01/14 07:40:38;;;;;;;17.15;3.35;;;;;;;5.59;100.00;100683.56;5018126;28;20234;-46
2023/01/14 07:43:04;;;;;;;19.15;4.00;;;;;;;5.56;100.00;100683.63;5017348;28;20710;-46
2023/01/14 07:45:29;;;;;;;18.45;3.92;;;;;;;5.59;100.00;100686.22;5022076;28;20236;-46
2023/01/14 07:47:56;;;;;;;15.52;3.72;;;;;;;5.61;100.00;100686.19;5016936;28;20254;-48
2023/01/14 07:50:22;;;;;;;18.13;3.83;;;;;;;5.60;100.00;100684.44;5013906;28;20227;-46
2023/01/14 07:52:56;;;;;;;19.65;3.65;;;;;;;5.67;100.00;100676.31;5016681;28;20714;-47
2023/01/14 07:55:22;;;;;;;21.17;4.03;;;;;;;5.68;100.00;100682.50;5015825;28;20211;-46
2023/01/14 07:57:48;;;;;;;24.48;4.80;;;;;;;5.65;100.00;100678.13;5015839;28;20188;-46
2023/01/14 08:00:14;;;;;;;17.73;3.22;;;;;;;5.67;100.00;100673.66;5001374;28;20568;-46
2023/01/14 08:02:40;;;;;;;23.05;3.40;;;;;;;5.73;100.00;100662.03;5017699;28;20184;-46
2023/01/14 08:05:06;;;;;;;21.05;3.95;;;;;;;5.73;100.00;100670.00;5015654;28;20283;-46
2023/01/14 08:07:31;;;;;;;18.65;3.60;;;;;;;5.68;100.00;100677.19;5016123;28;20187;-47
2023/01/14 08:09:57;;;;;;;23.85;3.70;;;;;;;5.73;100.00;100675.31;5022082;28;20300;-46
2023/01/14 08:12:23;;;;;;;17.20;3.63;;;;;;;5.69;100.00;100684.25;5010033;28;20306;-46
2023/01/14 08:14:48;;;;;;;18.70;3.47;;;;;;;5.68;100.00;100669.22;5024520;28;20215;-47
2023/01/14 08:17:14;;;;;;;16.20;3.38;;;;;;;5.71;100.00;100671.81;5016066;28;20185;-46
2023/01/14 08:19:40;;;;;;;13.88;3.92;;;;;;;5.70;100.00;100662.06;5012268;28;20181;-46
2023/01/14 08:22:05;;;;;;;16.05;3.15;;;;;;;5.69;100.00;100668.31;5021609;28;20230;-48
2023/01/14 08:24:31;;;;;;;19.02;3.58;;;;;;;5.67;100.00;100667.47;5013459;28;20698;-46
2023/01/14 08:26:56;;;;;;;18.10;3.15;;;;;;;5.68;100.00;100654.13;5018468;28;20187;-46
2023/01/14 08:29:22;;;;;;;16.35;3.63;;;;;;;5.70;100.00;100649.66;5019615;28;20216;-46
2023/01/14 08:31:51;;;;;;;19.45;2.85;;;;;;;5.68;100.00;100654.13;5016351;28;20634;-47
2023/01/14 08:34:17;;;;;;;17.55;3.58;;;;;;;5.71;100.00;100637.25;5012082;28;20212;-47
2023/01/14 08:36:44;;;;;;;21.05;3.88;;;;;;;5.70;100.00;100651.44;5018269;28;20838;-50
2023/01/14 08:39:09;;;;;;;16.85;3.33;;;;;;;5.62;100.00;100629.47;5018467;28;20185;-46
2023/01/14 08:41:35;;;;;;;15.82;3.10;;;;;;;5.61;100.00;100633.91;5016563;28;20188;-48
2023/01/14 08:44:01;;;;;;;19.63;3.28;;;;;;;5.61;100.00;100623.28;5021338;28;20180;-49
2023/01/14 08:46:27;;;;;;;14.48;3.17;;;;;;;5.60;100.00;100617.97;5022417;28;20803;-46
2023/01/14 08:48:52;;;;;;;21.48;3.25;;;;;;;5.59;100.00;100617.13;5018221;28;20204;-48
2023/01/14 08:51:18;;;;;;;16.30;3.60;;;;;;;5.56;100.00;100594.16;5017242;28;20214;-47
2023/01/14 08:53:44;;;;;;;19.80;3.38;;;;;;;5.64;100.00;100591.34;5020081;28;20215;-48
2023/01/14 08:56:15;;;;;;;20.45;3.42;;;;;;;5.54;100.00;100600.41;5022282;28;20515;-48
2023/01/14 08:58:42;;;;;;;19.35;3.58;;;;;;;5.58;100.00;100596.78;5022484;28;20173;-47
2023/01/14 09:01:08;;;;;;;15.43;2.83;;;;;;;5.58;100.00;100595.00;5016402;28;20250;-48
2023/01/14 09:03:35;;;;;;;18.48;3.40;;;;;;;5.60;100.00;100599.38;5026163;28;20188;-46
2023/01/14 09:06:06;;;;;;;18.35;3.28;;;;;;;5.59;100.00;100595.84;5021707;28;20235;-48
2023/01/14 09:17:06;;;;;;;13.40;2.60;;;;;;;5.60;100.00;100589.66;5020812;28;20192;-46
2023/01/14 09:19:36;;;;;;;19.50;2.97;;;;;;;5.57;100.00;100582.63;5024634;28;20176;-47
2023/01/14 09:22:04;;;;;;;18.15;3.30;;;;;;;5.58;100.00;100578.19;5017438;28;20258;-48
2023/01/14 09:24:29;;;;;;;20.42;3.10;;;;;;;5.55;100.00;100578.22;5024451;28;20180;-51
2023/01/14 09:26:55;;;;;;;14.63;3.28;;;;;;;5.56;100.00;100566.72;5015284;28;20184;-47
2023/01/14 09:29:20;;;;;;;24.58;3.60;;;;;;;5.53;100.00;100564.09;5017817;28;20214;-45
2023/01/14 09:31:46;;;;;;;16.38;3.28;;;;;;;5.54;100.00;100565.88;5016372;28;20920;-47
2023/01/14 09:34:11;;;;;;;21.17;3.25;;;;;;;5.57;100.00;100573.75;5019866;28;20180;-48
2023/01/14 09:36:37;;;;;;;16.55;3.13;;;;;;;5.60;100.00;100573.69;5017807;28;20611;-47
2023/01/14 09:39:02;;;;;;;16.17;3.33;;;;;;;5.54;100.00;100564.06;5020202;28;20181;-48
2023/01/14 09:41:33;;;;;;;16.02;3.38;;;;;;;5.51;100.00;100572.13;5021546;28;20234;-46
2023/01/14 09:44:01;;;;;;;20.75;4.30;;;;;;;5.48;100.00;100566.00;5022314;28;20193;-48
2023/01/14 09:46:27;;;;;;;18.20;3.65;;;;;;;5.53;100.00;100572.06;5016262;28;20215;-48
2023/01/14 09:49:00;;;;;;;18.60;3.92;;;;;;;5.53;100.00;100572.97;5012632;28;20626;-46
2023/01/14 09:51:54;;;;;;;17.80;4.05;;;;;;;5.52;100.00;100568.53;5014141;28;20243;-46
2023/01/14 09:54:43;;;;;;;12.63;3.13;;;;;;;5.54;100.00;100564.06;5018473;28;20184;-41
2023/01/14 09:57:23;;;;;;;16.08;3.70;;;;;;;5.56;100.00;100567.56;4980949;28;1119371;-43
2023/01/14 10:00:33;;;;;;;19.13;4.40;;;;;;;5.54;100.00;100560.53;5019528;28;20283;-42
2023/01/14 10:03:20;;;;;;;11.70;3.55;;;;;;;5.58;100.00;100544.50;5001206;28;20203;-43
2023/01/14 10:05:53;;;;;;;17.83;5.03;;;;;;;5.53;100.00;100548.16;5022733;28;20263;-41
2023/01/14 10:08:20;;;;;;;20.25;5.72;;;;;;;5.66;100.00;100536.34;5023111;28;20215;-41
2023/01/14 10:10:47;;;;;;;24.95;5.93;;;;;;;5.49;100.00;100531.41;5016173;28;20354;-42
2023/01/14 10:13:22;;;;;;;24.38;5.47;;;;;;;5.54;100.00;100526.00;5017727;28;20192;-42
2023/01/14 10:16:01;;;;;;;26.05;6.25;;;;;;;5.55;100.00;100525.06;5024032;28;20222;-41
2023/01/14 10:18:49;;;;;;;21.45;5.97;;;;;;;5.47;100.00;100511.13;5021516;28;20315;-41
2023/01/14 10:21:34;;;;;;;20.17;5.70;;;;;;;5.48;100.00;100520.81;5018388;28;20717;-43
2023/01/14 10:23:59;;;;;;;18.90;6.68;;;;;;;5.51;100.00;100504.78;5014476;28;20181;-43
2023/01/14 10:26:31;;;;;;;23.42;6.32;;;;;;;5.47;100.00;100509.31;5023052;28;20269;-40
2023/01/14 10:29:02;;;;;;;24.00;5.38;;;;;;;5.46;100.00;100496.94;5022180;28;20216;-43
2023/01/14 10:31:30;;;;;;;20.70;5.50;;;;;;;5.55;100.00;100495.84;5015218;28;20326;-43
2023/01/14 10:33:58;;;;;;;18.35;5.25;;;;;;;5.54;100.00;100479.03;5019778;28;20193;-43
2023/01/14 10:36:29;;;;;;;20.92;5.10;;;;;;;5.55;100.00;100482.56;5021713;28;20262;-42
2023/01/14 10:38:55;;;;;;;19.73;6.22;;;;;;;5.51;100.00;100464.94;5022106;28;20218;-42
2023/01/14 10:41:48;;;;;;;21.42;5.30;;;;;;;5.50;100.00;100456.09;5018736;28;20200;-44
2023/01/14 10:44:25;;;;;;;14.52;5.03;;;;;;;5.48;100.00;100454.38;5015064;28;20184;-43
2023/01/14 10:47:00;;;;;;;23.10;5.28;;;;;;;5.49;100.00;100442.88;5018629;28;20188;-42
2023/01/14 10:49:47;;;;;;;17.80;5.55;;;;;;;5.48;100.00;100434.00;5017237;28;20288;-42
2023/01/14 10:52:26;;;;;;;18.92;5.13;;;;;;;5.54;100.00;100436.53;5018652;28;20181;-43
2023/01/14 10:55:10;;;;;;;20.92;5.78;;;;;;;5.48;100.00;100430.47;5017881;28;20200;-42
2023/01/14 10:57:44;;;;;;;17.20;5.13;;;;;;;5.45;100.00;100410.19;5017346;28;20200;-40
2023/01/14 11:00:28;;;;;;;23.17;5.18;;;;;;;5.45;100.00;100406.66;5017356;28;20184;-42
2023/01/14 11:02:56;;;;;;;21.48;5.28;;;;;;;5.45;100.00;100396.91;5024426;28;20191;-42
2023/01/14 11:05:25;;;;;;;24.63;5.80;;;;;;;5.45;100.00;100394.25;5021685;28;20211;-42
2023/01/14 11:07:52;;;;;;;19.50;4.93;;;;;;;5.45;100.00;100377.44;5018983;28;20188;-42
2023/01/14 11:10:21;;;;;;;20.92;4.65;;;;;;;5.43;100.00;100364.16;5020653;28;20258;-42
2023/01/14 11:12:46;;;;;;;20.92;5.38;;;;;;;5.44;100.00;100359.72;5027192;28;20223;-39
2023/01/14 11:15:34;;;;;;;20.13;5.93;;;;;;;5.43;100.00;100347.38;5023362;28;20250;-43
2023/01/14 11:18:18;;;;;;;19.52;6.00;;;;;;;5.50;100.00;100340.97;5015387;28;20184;-42
2023/01/14 11:20:52;;;;;;;23.00;5.40;;;;;;;5.41;100.00;100319.97;5014178;28;20564;-48
2023/01/14 11:23:51;;;;;;;24.67;6.15;;;;;;;5.52;100.00;100308.13;5014319;28;20725;-46
2023/01/14 11:26:32;;;;;;;26.23;6.60;;;;;;;5.46;100.00;100300.31;5003422;28;20220;-46
2023/01/14 11:29:23;;;;;;;19.38;5.28;;;;;;;5.52;100.00;100283.34;5017836;28;20199;-46
2023/01/14 11:32:04;;;;;;;24.77;6.00;;;;;;;5.48;100.00;100277.25;5013314;28;20253;-48
2023/01/14 11:34:48;;;;;;;18.23;5.40;;;;;;;5.49;100.00;100270.16;5018199;28;20626;-48
2023/01/14 11:37:23;;;;;;;21.15;5.63;;;;;;;5.55;100.00;100262.00;5015439;28;20192;-47
2023/01/14 11:39:59;;;;;;;20.38;5.47;;;;;;;5.57;100.00;100236.28;5014437;28;20643;-48
2023/01/14 11:42:40;;;;;;;25.15;5.75;;;;;;;5.55;100.00;100225.72;5024730;28;20192;-46
2023/01/14 11:45:11;;;;;;;15.80;5.40;;;;;;;5.60;100.00;100217.59;5022381;28;20226;-47
2023/01/14 11:47:46;;;;;;;28.13;6.68;;;;;;;5.63;100.00;100213.97;5021338;28;20180;-49
2023/01/14 11:50:16;;;;;;;20.00;5.97;;;;;;;5.62;100.00;100201.59;5014763;28;20200;-48
2023/01/14 11:52:54;;;;;;;28.35;6.63;;;;;;;5.64;100.00;100192.69;5028665;28;20184;-46
2023/01/14 11:55:19;;;;;;;25.20;5.90;;;;;;;5.70;100.00;100181.00;5033310;28;20207;-45
2023/01/14 11:57:45;;;;;;;24.98;6.50;;;;;;;5.69;100.00;100161.53;5014626;28;20179;-45